Kezdőlap
METAR-TAF:

METAR-TAF

Repülőterek :

Fairmont Municipal Airport

Fairmont, Minnesota, Amerikai Egyesült Államok

földrajzi szélesség: 43-39N, földrajzi hosszúság: 094-25W, magasság: 354 m

Jelenlegi meteorológiai megfigyelések

A jelentés 5 perccel ezelõtt készült, 09:35 UTC
Északi szél 7 kt
Hőmérséklet -2°C
Páratartalom 100%
Légköri nyomás 1003 hPa
Látótávolság: 0.8 km
Borult 300 lábon
enyhe havazás, zúzmarás köd

METAR: KFRM 090935Z AUTO 35007KT 1/2SM -SN FZFG OVC003 M02/M02 A2963 RMK AO2 P0000 FZRANO

Idő: 03:40 (09:40 UTC)


TAF: hiányzik

Meteorológiai megfigyelések és előrejelzések több, mint 4000 repülőtéren (METAR és TAF jelentéseket).

A térképen piros és sárga pontok jelzik az elérhető meteorológiai állomásokat.

Mozgassa az egeret a pont fölött, hogy megjelenjen az állomás neve.

Azután kattintson az időjárási megfigyelések és előrejelzések megtekintéséhez.

A térkép megváltoztatása: kattintson a fekete keresztel jelölt zöld gombra ráközelítéshez, a vonallal jelölt zöld gombra távolításhoz, vagy a zöld nyilakra a szomszédos térképek eléréséhez.


METAR-TAF: